createdAt,value
2023-04-18T00:02:29.253Z,3.20
2023-04-18T00:04:57.176Z,3.47
2023-04-18T00:07:25.645Z,2.47
2023-04-18T00:09:54.208Z,2.90
2023-04-18T00:12:22.194Z,1.98
2023-04-18T00:14:50.621Z,2.28
2023-04-18T00:17:18.887Z,2.13
2023-04-18T00:19:46.659Z,1.42
2023-04-18T00:22:14.711Z,1.98
2023-04-18T00:24:42.460Z,2.50
2023-04-18T00:27:10.322Z,3.15
2023-04-18T00:29:38.200Z,3.28
2023-04-18T00:32:06.294Z,2.50
2023-04-18T00:34:33.932Z,2.15
2023-04-18T00:37:01.671Z,2.30
2023-04-18T00:39:29.445Z,3.08
2023-04-18T00:41:57.154Z,2.67
2023-04-18T00:44:24.781Z,2.67
2023-04-18T00:46:53.151Z,3.20
2023-04-18T00:49:20.801Z,2.33
2023-04-18T00:51:48.821Z,2.45
2023-04-18T00:54:16.963Z,2.03
2023-04-18T00:56:44.764Z,2.73
2023-04-18T00:59:12.673Z,1.95
2023-04-18T01:01:41.035Z,1.20
2023-04-18T01:04:09.032Z,2.78
2023-04-18T01:06:37.186Z,2.13
2023-04-18T01:09:05.780Z,2.60
2023-04-18T01:11:33.387Z,1.67
2023-04-18T01:14:04.681Z,2.50
2023-04-18T01:16:37.172Z,2.10
2023-04-18T01:19:05.164Z,1.83
2023-04-18T01:21:44.060Z,2.13
2023-04-18T01:24:13.923Z,1.58
2023-04-18T01:26:45.167Z,2.00
2023-04-18T01:29:12.937Z,1.90
2023-04-18T01:31:41.130Z,1.90
2023-04-18T01:34:08.988Z,2.00
2023-04-18T01:36:37.045Z,2.45
2023-04-18T01:39:04.904Z,2.10
2023-04-18T01:41:33.080Z,2.35
2023-04-18T01:44:00.973Z,1.40
2023-04-18T01:46:29.156Z,2.53
2023-04-18T01:48:57.194Z,2.53
2023-04-18T01:51:24.941Z,2.63
2023-04-18T01:53:52.626Z,2.15
2023-04-18T01:56:21.151Z,2.47
2023-04-18T01:58:48.927Z,1.80
2023-04-18T02:01:16.736Z,1.77
2023-04-18T02:03:44.713Z,1.97
2023-04-18T02:06:12.470Z,2.40
2023-04-18T02:08:40.481Z,1.55
2023-04-18T02:11:08.112Z,1.30
2023-04-18T02:13:35.892Z,1.42
2023-04-18T02:16:03.662Z,1.50
2023-04-18T02:18:34.769Z,2.28
2023-04-18T02:21:02.459Z,1.80
2023-04-18T02:23:30.346Z,1.45
2023-04-18T02:25:58.031Z,2.45
2023-04-18T02:28:25.735Z,1.77
2023-04-18T02:30:54.259Z,2.28
2023-04-18T02:33:21.853Z,1.90
2023-04-18T02:35:49.519Z,2.40
2023-04-18T02:38:17.271Z,2.55
2023-04-18T02:40:44.941Z,2.20
2023-04-18T02:43:12.565Z,2.88
2023-04-18T02:45:40.401Z,2.00
2023-04-18T02:48:08.329Z,1.98
2023-04-18T02:50:36.114Z,2.40
2023-04-18T02:53:03.843Z,1.80
2023-04-18T02:55:32.236Z,2.10
2023-04-18T02:58:00.053Z,2.75
2023-04-18T03:00:27.700Z,1.90
2023-04-18T03:02:56.930Z,2.70
2023-04-18T03:05:24.720Z,2.08
2023-04-18T03:07:52.615Z,1.88
2023-04-18T03:10:20.568Z,2.90
2023-04-18T03:12:48.295Z,2.80
2023-04-18T03:15:17.397Z,2.60
2023-04-18T03:17:45.317Z,2.60
2023-04-18T03:20:13.011Z,1.67
2023-04-18T03:22:41.844Z,3.13
2023-04-18T03:25:09.593Z,3.40
2023-04-18T03:27:37.447Z,1.75
2023-04-18T03:30:05.352Z,3.38
2023-04-18T03:32:36.603Z,2.70
2023-04-18T03:35:06.761Z,2.60
2023-04-18T03:37:34.613Z,2.45
2023-04-18T03:40:02.310Z,3.42
2023-04-18T03:42:29.962Z,2.50
2023-04-18T03:44:57.990Z,2.85
2023-04-18T03:47:25.824Z,2.22
2023-04-18T03:49:54.567Z,2.77
2023-04-18T03:52:22.256Z,2.58
2023-04-18T03:54:49.864Z,3.17
2023-04-18T03:57:17.613Z,3.83
2023-04-18T03:59:47.793Z,2.77
2023-04-18T04:02:16.110Z,3.53
2023-04-18T04:04:43.885Z,1.65
2023-04-18T04:07:12.171Z,2.70
2023-04-18T04:09:39.859Z,3.15
2023-04-18T04:12:07.650Z,2.17
2023-04-18T04:14:35.271Z,3.50
2023-04-18T04:17:02.990Z,3.03
2023-04-18T04:19:30.658Z,3.42
2023-04-18T04:21:58.371Z,1.85
2023-04-18T04:24:26.028Z,2.40
2023-04-18T04:26:54.146Z,2.90
2023-04-18T04:29:21.858Z,3.25
2023-04-18T04:31:49.556Z,3.43
2023-04-18T04:34:17.321Z,3.28
2023-04-18T04:36:46.049Z,4.07
2023-04-18T04:39:14.022Z,4.13
2023-04-18T04:41:41.711Z,3.42
2023-04-18T04:44:09.933Z,3.72
2023-04-18T04:46:39.668Z,3.10
2023-04-18T04:49:07.494Z,3.80
2023-04-18T04:51:36.069Z,2.97
2023-04-18T04:54:03.757Z,4.13
2023-04-18T04:56:31.474Z,1.47
2023-04-18T04:58:59.239Z,4.53
2023-04-18T05:01:27.070Z,3.92
2023-04-18T05:03:55.005Z,4.40
2023-04-18T05:06:22.926Z,4.80
2023-04-18T05:08:51.102Z,3.33
2023-04-18T05:11:19.012Z,4.93
2023-04-18T05:13:46.585Z,4.67
2023-04-18T05:16:15.401Z,4.72
2023-04-18T05:18:43.290Z,3.58
2023-04-18T05:21:11.024Z,3.37
2023-04-18T05:23:38.659Z,3.90
2023-04-18T05:26:06.542Z,2.22
2023-04-18T05:28:34.506Z,2.00
2023-04-18T05:31:02.427Z,2.90
2023-04-18T05:33:30.351Z,2.35
2023-04-18T05:35:58.017Z,4.28
2023-04-18T05:38:25.961Z,4.33
2023-04-18T05:40:56.016Z,4.57
2023-04-18T05:43:23.866Z,3.05
2023-04-18T05:45:53.481Z,3.20
2023-04-18T05:48:23.744Z,3.55
2023-04-18T05:50:51.382Z,2.97
2023-04-18T05:53:18.981Z,3.43
2023-04-18T05:55:48.781Z,3.33
2023-04-18T05:58:16.690Z,2.30
2023-04-18T06:00:44.556Z,3.08
2023-04-18T06:03:12.459Z,2.37
2023-04-18T06:05:41.270Z,2.75
2023-04-18T06:08:10.123Z,2.85
2023-04-18T06:10:39.081Z,3.07
2023-04-18T06:13:07.085Z,2.88
2023-04-18T06:15:35.821Z,1.80
2023-04-18T06:18:03.584Z,2.83
2023-04-18T06:20:31.293Z,2.30
2023-04-18T06:22:59.043Z,3.33
2023-04-18T06:25:26.713Z,2.97
2023-04-18T06:27:54.572Z,2.50
2023-04-18T06:30:22.395Z,1.70
2023-04-18T06:32:50.183Z,2.88
2023-04-18T06:35:18.031Z,2.00
2023-04-18T06:37:45.854Z,2.33
2023-04-18T06:40:13.587Z,3.03
2023-04-18T06:42:41.356Z,2.70
2023-04-18T06:45:10.851Z,2.50
2023-04-18T06:47:39.007Z,3.25
2023-04-18T06:50:07.384Z,2.75
2023-04-18T06:52:40.502Z,3.13
2023-04-18T06:55:09.510Z,2.60
2023-04-18T06:57:37.441Z,2.55
2023-04-18T07:00:05.667Z,3.27
2023-04-18T07:02:33.568Z,2.50
2023-04-18T07:05:01.325Z,2.10
2023-04-18T07:07:29.279Z,3.60
2023-04-18T07:09:57.072Z,3.45
2023-04-18T07:12:24.819Z,2.75
2023-04-18T07:14:52.775Z,2.72
2023-04-18T07:17:22.001Z,2.10
2023-04-18T07:19:49.753Z,2.75
2023-04-18T07:22:17.490Z,3.20
2023-04-18T07:24:45.174Z,3.30
2023-04-18T07:27:12.915Z,2.33
2023-04-18T07:29:52.761Z,2.86
2023-04-18T07:32:20.483Z,2.97
2023-04-18T07:34:48.631Z,3.08
2023-04-18T07:37:20.689Z,2.13
2023-04-18T07:39:48.676Z,2.03
2023-04-18T07:42:16.427Z,2.35
2023-04-18T07:44:44.738Z,2.60
2023-04-18T07:47:12.674Z,3.13
2023-04-18T07:49:40.491Z,3.05
2023-04-18T07:52:08.336Z,3.53
2023-04-18T07:54:36.095Z,3.10
2023-04-18T07:57:03.876Z,2.63
2023-04-18T07:59:34.624Z,2.80
2023-04-18T08:02:02.364Z,2.40
2023-04-18T08:04:30.555Z,2.57
2023-04-18T08:06:58.557Z,3.05
2023-04-18T08:09:26.246Z,3.17
2023-04-18T08:25:04.221Z,3.30
2023-04-18T08:27:33.464Z,2.30
2023-04-18T08:30:10.379Z,2.28
2023-04-18T08:32:38.178Z,2.17
2023-04-18T08:35:06.151Z,2.10
2023-04-18T08:37:35.483Z,3.03
2023-04-18T08:40:07.511Z,3.63
2023-04-18T08:42:35.552Z,3.00
2023-04-18T08:45:04.407Z,3.30
2023-04-18T08:47:32.235Z,2.00
2023-04-18T08:49:59.953Z,2.17
2023-04-18T08:52:27.575Z,1.92
2023-04-18T08:54:55.295Z,2.55
2023-04-18T08:57:27.047Z,2.20
2023-04-18T08:59:55.594Z,3.08
2023-04-18T09:02:23.660Z,3.33
2023-04-18T09:04:55.876Z,2.30
2023-04-18T09:07:32.492Z,2.67
2023-04-18T09:10:00.191Z,1.73
2023-04-18T09:12:29.584Z,2.65
2023-04-18T09:14:58.021Z,1.83
2023-04-18T09:17:35.734Z,3.33
2023-04-18T09:20:05.357Z,3.05
2023-04-18T09:22:50.635Z,2.67
2023-04-18T09:25:26.176Z,1.70
2023-04-18T09:27:54.372Z,1.67
2023-04-18T09:30:41.086Z,2.13
2023-04-18T09:33:10.327Z,2.13
2023-04-18T09:35:38.508Z,1.50
2023-04-18T09:38:07.586Z,1.40
2023-04-18T09:40:35.593Z,1.23
2023-04-18T09:43:09.829Z,1.85
2023-04-18T09:45:37.554Z,1.30
2023-04-18T09:48:05.316Z,1.50
2023-04-18T09:50:33.064Z,1.65
2023-04-18T09:53:00.765Z,1.85
2023-04-18T09:55:28.529Z,1.58
2023-04-18T09:58:03.178Z,1.43
2023-04-18T10:00:31.129Z,2.15
2023-04-18T10:02:59.502Z,1.60
2023-04-18T10:05:28.550Z,1.83
2023-04-18T10:07:56.350Z,1.45
2023-04-18T10:10:24.431Z,1.37
2023-04-18T10:12:54.383Z,1.90
2023-04-18T10:15:22.560Z,1.65
2023-04-18T10:18:03.530Z,1.52
2023-04-18T10:20:32.275Z,1.47
2023-04-18T10:23:00.642Z,1.35
2023-04-18T10:25:41.238Z,1.95
2023-04-18T10:28:09.298Z,1.23
2023-04-18T10:30:42.568Z,1.33
2023-04-18T10:33:32.236Z,1.10
2023-04-18T10:36:01.453Z,1.63
2023-04-18T10:38:29.329Z,1.25
2023-04-18T10:41:15.945Z,1.30
2023-04-18T10:44:02.155Z,1.60
2023-04-18T10:46:32.729Z,0.73
2023-04-18T10:49:16.763Z,0.88
2023-04-18T10:51:47.588Z,0.88
2023-04-18T10:54:22.039Z,1.40
2023-04-18T10:56:56.842Z,1.20
2023-04-18T10:59:25.509Z,1.00
2023-04-18T11:02:13.502Z,1.00
2023-04-18T11:04:41.474Z,1.40
2023-04-18T11:07:09.285Z,1.45
2023-04-18T11:09:38.688Z,0.85
2023-04-18T11:12:07.708Z,1.47
2023-04-18T11:14:42.898Z,0.80
2023-04-18T11:17:17.786Z,1.30
2023-04-18T11:19:45.735Z,1.27
2023-04-18T11:22:13.642Z,1.17
2023-04-18T11:24:41.286Z,1.00
2023-04-18T11:27:12.847Z,2.07
2023-04-18T11:29:40.604Z,2.97
2023-04-18T11:32:09.040Z,3.33
2023-04-18T11:34:36.946Z,4.38
2023-04-18T11:37:08.357Z,4.40
2023-04-18T11:39:36.618Z,4.53
2023-04-18T11:42:04.423Z,4.90
2023-04-18T11:44:33.752Z,5.20
2023-04-18T11:47:03.435Z,5.10
2023-04-18T11:49:32.156Z,4.65
2023-04-18T11:52:01.263Z,4.78
2023-04-18T11:54:41.313Z,4.82
2023-04-18T11:57:19.590Z,4.50
2023-04-18T11:59:50.970Z,4.68
2023-04-18T12:02:19.921Z,5.00
2023-04-18T12:04:58.458Z,5.30
2023-04-18T12:07:32.999Z,4.88
2023-04-18T12:10:01.020Z,5.00
2023-04-18T12:12:28.727Z,5.47
2023-04-18T12:15:00.065Z,5.10
2023-04-18T12:17:28.378Z,5.00
2023-04-18T12:19:56.110Z,5.70
2023-04-18T12:22:40.178Z,5.13
2023-04-18T12:25:26.925Z,4.93
2023-04-18T12:28:05.485Z,5.10
2023-04-18T12:30:36.028Z,5.50
2023-04-18T12:33:05.296Z,5.28
2023-04-18T12:35:33.161Z,5.17
2023-04-18T12:38:01.452Z,5.38
2023-04-18T12:40:30.321Z,4.88
2023-04-18T12:42:58.014Z,6.00
2023-04-18T12:45:25.900Z,5.70
2023-04-18T12:47:53.929Z,5.57
2023-04-18T12:50:25.411Z,6.10
2023-04-18T12:52:53.764Z,6.00
2023-04-18T12:55:22.840Z,4.38
2023-04-18T12:57:51.848Z,3.28
2023-04-18T13:00:19.505Z,4.70
2023-04-18T13:02:47.592Z,3.50
2023-04-18T13:05:15.955Z,4.30
2023-04-18T13:07:43.750Z,4.72
2023-04-18T13:10:12.132Z,3.50
2023-04-18T13:12:40.162Z,3.30
2023-04-18T13:15:08.628Z,5.18
2023-04-18T13:17:37.057Z,4.23
2023-04-18T13:20:06.817Z,2.95
2023-04-18T13:22:34.718Z,3.70
2023-04-18T13:25:02.477Z,3.60
2023-04-18T13:27:30.266Z,3.60
2023-04-18T13:29:58.414Z,3.00
2023-04-18T13:32:27.213Z,3.30
2023-04-18T13:34:56.262Z,4.28
2023-04-18T13:37:24.159Z,3.90
2023-04-18T13:39:51.845Z,3.30
2023-04-18T13:42:19.657Z,3.20
2023-04-18T13:44:47.949Z,3.95
2023-04-18T13:47:16.001Z,3.25
2023-04-18T13:49:43.687Z,3.53
2023-04-18T13:52:11.460Z,2.78
2023-04-18T13:54:39.170Z,3.80
2023-04-18T13:57:12.976Z,3.40
2023-04-18T13:59:40.836Z,3.30
2023-04-18T14:02:11.674Z,2.67
2023-04-18T14:04:39.761Z,2.80
2023-04-18T14:07:08.225Z,3.33
2023-04-18T14:09:36.026Z,3.80
2023-04-18T14:12:03.760Z,3.47
2023-04-18T14:14:31.515Z,2.33
2023-04-18T14:16:59.418Z,4.05
2023-04-18T14:19:27.680Z,2.92
2023-04-18T14:21:55.493Z,2.42
2023-04-18T14:24:23.222Z,3.28
2023-04-18T14:26:51.053Z,2.15
2023-04-18T14:29:18.784Z,2.30
2023-04-18T14:31:46.631Z,3.70
2023-04-18T14:34:14.583Z,3.60
2023-04-18T14:36:46.165Z,3.95
2023-04-18T14:39:14.268Z,3.90
2023-04-18T14:41:42.182Z,3.83
2023-04-18T14:44:10.219Z,2.90
2023-04-18T14:46:44.975Z,2.80
2023-04-18T14:49:13.014Z,3.60
2023-04-18T14:51:40.846Z,3.53
2023-04-18T14:54:08.564Z,2.75
2023-04-18T14:56:36.358Z,3.37
2023-04-18T14:59:04.150Z,3.58
2023-04-18T15:01:32.032Z,2.78
2023-04-18T15:04:00.045Z,3.07
2023-04-18T15:06:28.600Z,3.58
2023-04-18T15:08:56.890Z,3.28
2023-04-18T15:11:24.610Z,4.73
2023-04-18T15:13:52.422Z,3.30
2023-04-18T15:16:20.101Z,2.75
2023-04-18T15:18:48.062Z,3.65
2023-04-18T15:21:15.828Z,2.87
2023-04-18T15:23:43.547Z,2.97
2023-04-18T15:26:11.586Z,4.35
2023-04-18T15:28:39.547Z,3.20
2023-04-18T15:31:07.808Z,2.90
2023-04-18T15:33:35.738Z,3.55
2023-04-18T15:36:03.425Z,3.33
2023-04-18T15:38:32.983Z,2.47
2023-04-18T15:41:01.178Z,2.17
2023-04-18T15:43:29.109Z,2.75
2023-04-18T15:45:56.989Z,2.83
2023-04-18T15:48:24.836Z,2.33
2023-04-18T15:50:52.943Z,3.38
2023-04-18T15:53:20.827Z,2.37
2023-04-18T15:55:48.638Z,3.15
2023-04-18T15:58:16.561Z,2.35
2023-04-18T16:00:44.487Z,3.37
2023-04-18T16:03:12.557Z,2.13
2023-04-18T16:05:40.261Z,3.80
2023-04-18T16:08:09.108Z,2.92
2023-04-18T16:10:37.619Z,2.60
2023-04-18T16:13:06.855Z,2.05
2023-04-18T16:15:43.638Z,2.13
2023-04-18T16:18:11.742Z,1.47
2023-04-18T16:20:39.494Z,2.25
2023-04-18T16:23:07.128Z,2.05
2023-04-18T16:25:34.891Z,2.27
2023-04-18T16:28:06.075Z,3.55
2023-04-18T16:30:33.792Z,1.98
2023-04-18T16:33:01.555Z,2.15
2023-04-18T16:35:29.420Z,1.80
2023-04-18T16:37:57.128Z,2.33
2023-04-18T16:40:26.570Z,1.90
2023-04-18T16:42:54.271Z,1.33
2023-04-18T16:45:21.966Z,2.28
2023-04-18T16:47:49.847Z,1.95
2023-04-18T16:50:17.537Z,1.90
2023-04-18T16:52:45.271Z,2.55
2023-04-18T16:55:12.943Z,1.50
2023-04-18T16:57:40.797Z,1.80
2023-04-18T17:00:10.078Z,1.97
2023-04-18T17:02:39.786Z,1.52
2023-04-18T17:05:07.568Z,2.22
2023-04-18T17:07:35.348Z,1.90
2023-04-18T17:10:03.171Z,2.20
2023-04-18T17:12:31.522Z,2.35
2023-04-18T17:14:59.231Z,2.43
2023-04-18T17:17:26.926Z,1.23
2023-04-18T17:19:54.823Z,1.98
2023-04-18T17:22:22.530Z,1.73
2023-04-18T17:24:50.341Z,1.87
2023-04-18T17:27:18.151Z,1.67
2023-04-18T17:29:45.878Z,2.05
2023-04-18T17:32:13.920Z,3.27
2023-04-18T17:34:41.737Z,2.63
2023-04-18T17:37:09.617Z,2.90
2023-04-18T17:39:37.204Z,2.73
2023-04-18T17:42:04.897Z,2.28
2023-04-18T17:44:33.606Z,2.70
2023-04-18T17:47:02.242Z,3.15
2023-04-18T17:49:34.631Z,2.00
2023-04-18T17:52:03.271Z,1.88
2023-04-18T17:54:31.185Z,2.33
2023-04-18T17:56:59.617Z,2.17
2023-04-18T17:59:28.350Z,2.13
2023-04-18T18:01:56.287Z,2.40
2023-04-18T18:04:26.470Z,2.90
2023-04-18T18:06:57.664Z,2.55
2023-04-18T18:09:25.389Z,2.38
2023-04-18T18:11:55.362Z,2.17
2023-04-18T18:14:23.974Z,1.83
2023-04-18T18:16:51.674Z,2.55
2023-04-18T18:19:20.564Z,2.58
2023-04-18T18:21:48.230Z,2.47
2023-04-18T18:24:16.347Z,2.28
2023-04-18T18:26:44.201Z,2.30
2023-04-18T18:29:13.392Z,2.27
2023-04-18T18:31:42.067Z,2.13
2023-04-18T18:34:09.872Z,2.80
2023-04-18T18:36:37.562Z,1.88
2023-04-18T18:39:05.688Z,2.00
2023-04-18T18:41:33.596Z,2.22
2023-04-18T18:44:01.417Z,2.35
2023-04-18T18:46:29.258Z,2.20
2023-04-18T18:48:56.996Z,2.30
2023-04-18T18:51:24.732Z,2.78
2023-04-18T18:53:52.490Z,2.70
2023-04-18T18:56:20.231Z,2.00
2023-04-18T18:58:48.105Z,2.78
2023-04-18T19:01:16.092Z,2.20
2023-04-18T19:03:43.954Z,2.73
2023-04-18T19:06:12.556Z,2.42
2023-04-18T19:08:40.363Z,2.90
2023-04-18T19:11:08.243Z,2.53
2023-04-18T19:13:35.991Z,2.33
2023-04-18T19:16:03.856Z,2.60
2023-04-18T19:18:31.771Z,2.60
2023-04-18T19:20:59.427Z,2.33
2023-04-18T19:23:27.988Z,3.08
2023-04-18T19:25:55.841Z,2.40
2023-04-18T19:28:23.795Z,2.00
2023-04-18T19:30:53.273Z,2.58
2023-04-18T19:33:21.393Z,3.00
2023-04-18T19:35:49.363Z,2.37
2023-04-18T19:38:17.131Z,2.55
2023-04-18T19:40:44.953Z,2.40
2023-04-18T19:43:12.715Z,1.37
2023-04-18T19:45:40.993Z,1.88
2023-04-18T19:48:08.736Z,2.38
2023-04-18T19:50:36.503Z,2.40
2023-04-18T19:53:04.458Z,1.93
2023-04-18T19:55:32.222Z,2.40
2023-04-18T19:58:00.067Z,2.63
2023-04-18T20:00:28.576Z,2.30
2023-04-18T20:02:58.672Z,2.08
2023-04-18T20:05:26.566Z,2.17
2023-04-18T20:07:55.376Z,2.67
2023-04-18T20:10:23.069Z,1.70
2023-04-18T20:12:51.215Z,2.05
2023-04-18T20:15:19.029Z,2.20
2023-04-18T20:17:46.872Z,2.23
2023-04-18T20:20:14.647Z,2.08
2023-04-18T20:22:44.830Z,2.30
2023-04-18T20:25:12.689Z,1.63
2023-04-18T20:27:40.541Z,2.00
2023-04-18T20:30:08.853Z,2.33
2023-04-18T20:32:37.046Z,1.80
2023-04-18T20:35:06.433Z,2.50
2023-04-18T20:37:36.770Z,2.28
2023-04-18T20:40:06.117Z,2.60
2023-04-18T20:42:34.214Z,2.30
2023-04-18T20:45:03.033Z,2.50
2023-04-18T20:47:30.938Z,1.90
2023-04-18T20:49:58.732Z,2.37
2023-04-18T20:52:26.539Z,1.73
2023-04-18T20:54:54.303Z,1.58
2023-04-18T20:57:22.003Z,2.33
2023-04-18T20:59:49.658Z,2.40
2023-04-18T21:02:17.452Z,2.22
2023-04-18T21:04:46.888Z,1.98
2023-04-18T21:07:14.760Z,1.97
2023-04-18T21:09:42.390Z,1.50
2023-04-18T21:12:10.143Z,1.92
2023-04-18T21:14:37.880Z,1.70
2023-04-18T21:17:05.778Z,1.63
2023-04-18T21:19:33.425Z,1.52
2023-04-18T21:22:01.274Z,0.80
2023-04-18T21:24:29.021Z,1.05
2023-04-18T21:26:57.894Z,1.33
2023-04-18T21:29:25.748Z,1.30
2023-04-18T21:31:53.718Z,1.40
2023-04-18T21:34:21.550Z,1.10
2023-04-18T21:36:49.313Z,1.48
2023-04-18T21:39:20.093Z,1.27
2023-04-18T21:41:47.749Z,1.88
2023-04-18T21:44:15.988Z,1.20
2023-04-18T21:46:43.920Z,1.20
2023-04-18T21:49:11.847Z,1.42
2023-04-18T21:51:39.598Z,1.17
2023-04-18T21:54:07.987Z,1.35
2023-04-18T21:56:35.724Z,0.90
2023-04-18T21:59:03.400Z,1.10
2023-04-18T22:01:31.261Z,1.33
2023-04-18T22:03:59.827Z,1.20
2023-04-18T22:06:27.670Z,1.58
2023-04-18T22:08:55.404Z,0.82
2023-04-18T22:11:23.803Z,1.23
2023-04-18T22:13:54.315Z,0.90
2023-04-18T22:16:22.268Z,0.82
2023-04-18T22:18:49.956Z,1.10
2023-04-18T22:21:17.765Z,0.87
2023-04-18T22:23:45.476Z,0.82
2023-04-18T22:26:13.153Z,0.98
2023-04-18T22:28:41.140Z,1.33
2023-04-18T22:31:08.961Z,1.25
2023-04-18T22:33:36.724Z,0.80
2023-04-18T22:36:04.492Z,0.87
2023-04-18T22:38:32.260Z,1.27
2023-04-18T22:41:00.147Z,0.82
2023-04-18T22:43:30.548Z,1.50
2023-04-18T22:45:58.220Z,1.40
2023-04-18T22:48:26.208Z,1.85
2023-04-18T22:50:54.673Z,1.05
2023-04-18T22:53:22.429Z,1.17
2023-04-18T22:55:50.120Z,1.27
2023-04-18T22:58:17.866Z,1.50
2023-04-18T23:00:45.701Z,1.60
2023-04-18T23:03:13.489Z,0.80
2023-04-18T23:05:41.778Z,1.38
2023-04-18T23:08:09.597Z,1.88
2023-04-18T23:10:37.380Z,1.50
2023-04-18T23:13:05.078Z,1.95
2023-04-18T23:15:32.969Z,1.25
2023-04-18T23:18:01.099Z,1.20
2023-04-18T23:20:28.894Z,1.50
2023-04-18T23:22:56.602Z,2.00
2023-04-18T23:25:24.394Z,1.83
2023-04-18T23:27:52.163Z,1.65
2023-04-18T23:30:19.847Z,1.60
2023-04-18T23:32:47.621Z,1.52
2023-04-18T23:35:15.249Z,1.30
2023-04-18T23:37:43.099Z,2.40
2023-04-18T23:40:11.140Z,1.27
2023-04-18T23:42:38.868Z,2.13
2023-04-18T23:45:06.833Z,1.38
2023-04-18T23:47:34.718Z,2.40
2023-04-18T23:50:02.549Z,1.43
2023-04-18T23:52:30.631Z,1.83
2023-04-18T23:55:01.536Z,1.63
2023-04-18T23:57:29.428Z,1.95
2023-04-18T23:59:57.232Z,1.97
